sensor_id;sensor_type;location;lat;lon;timestamp;temperature;humidity
31799;DHT22;18374;51.136;3.502;2023-01-31T00:02:22;4.20;99.90
31799;DHT22;18374;51.136;3.502;2023-01-31T00:04:50;4.20;99.90
31799;DHT22;18374;51.136;3.502;2023-01-31T00:07:17;4.10;99.90
31799;DHT22;18374;51.136;3.502;2023-01-31T00:09:45;4.10;99.90
31799;DHT22;18374;51.136;3.502;2023-01-31T00:12:13;4.00;99.90
31799;DHT22;18374;51.136;3.502;2023-01-31T00:14:40;4.00;99.90
31799;DHT22;18374;51.136;3.502;2023-01-31T00:17:08;4.00;99.90
31799;DHT22;18374;51.136;3.502;2023-01-31T00:19:36;3.90;99.90
31799;DHT22;18374;51.136;3.502;2023-01-31T00:22:05;3.90;99.90
31799;DHT22;18374;51.136;3.502;2023-01-31T00:24:32;3.90;99.90
31799;DHT22;18374;51.136;3.502;2023-01-31T00:27:01;3.80;99.90
31799;DHT22;18374;51.136;3.502;2023-01-31T00:29:28;3.80;99.90
31799;DHT22;18374;51.136;3.502;2023-01-31T00:31:56;3.80;99.90
31799;DHT22;18374;51.136;3.502;2023-01-31T00:34:24;3.80;99.90
31799;DHT22;18374;51.136;3.502;2023-01-31T00:36:52;3.80;99.90
31799;DHT22;18374;51.136;3.502;2023-01-31T00:39:21;3.70;99.90
31799;DHT22;18374;51.136;3.502;2023-01-31T00:41:49;3.70;99.90
31799;DHT22;18374;51.136;3.502;2023-01-31T00:44:17;3.70;99.90
31799;DHT22;18374;51.136;3.502;2023-01-31T00:46:44;3.60;99.90
31799;DHT22;18374;51.136;3.502;2023-01-31T00:49:12;3.60;99.90
31799;DHT22;18374;51.136;3.502;2023-01-31T00:51:40;3.60;99.90
31799;DHT22;18374;51.136;3.502;2023-01-31T00:54:08;3.50;99.90
31799;DHT22;18374;51.136;3.502;2023-01-31T00:56:35;3.50;99.90
31799;DHT22;18374;51.136;3.502;2023-01-31T00:59:04;3.50;99.90
31799;DHT22;18374;51.136;3.502;2023-01-31T01:01:35;3.50;99.90
31799;DHT22;18374;51.136;3.502;2023-01-31T01:04:04;3.40;99.90
31799;DHT22;18374;51.136;3.502;2023-01-31T01:06:33;3.40;99.90
31799;DHT22;18374;51.136;3.502;2023-01-31T01:09:02;3.40;99.90
31799;DHT22;18374;51.136;3.502;2023-01-31T01:11:32;3.40;99.90
31799;DHT22;18374;51.136;3.502;2023-01-31T01:14:01;3.40;99.90
31799;DHT22;18374;51.136;3.502;2023-01-31T01:16:36;3.40;99.90
31799;DHT22;18374;51.136;3.502;2023-01-31T01:19:06;3.40;99.90
31799;DHT22;18374;51.136;3.502;2023-01-31T01:21:37;3.40;99.90
31799;DHT22;18374;51.136;3.502;2023-01-31T01:24:12;3.40;99.90
31799;DHT22;18374;51.136;3.502;2023-01-31T01:26:42;3.40;99.90
31799;DHT22;18374;51.136;3.502;2023-01-31T01:29:11;3.30;99.90
31799;DHT22;18374;51.136;3.502;2023-01-31T01:31:39;3.30;99.90
31799;DHT22;18374;51.136;3.502;2023-01-31T01:34:12;3.30;99.90
31799;DHT22;18374;51.136;3.502;2023-01-31T01:36:41;3.30;99.90
31799;DHT22;18374;51.136;3.502;2023-01-31T01:39:11;3.20;99.90
31799;DHT22;18374;51.136;3.502;2023-01-31T01:41:41;3.30;99.90
31799;DHT22;18374;51.136;3.502;2023-01-31T01:47:45;3.20;99.90
31799;DHT22;18374;51.136;3.502;2023-01-31T01:50:29;3.20;99.90
31799;DHT22;18374;51.136;3.502;2023-01-31T01:53:09;3.20;99.90
31799;DHT22;18374;51.136;3.502;2023-01-31T01:55:54;3.20;99.90
31799;DHT22;18374;51.136;3.502;2023-01-31T01:58:38;3.10;99.90
31799;DHT22;18374;51.136;3.502;2023-01-31T02:01:32;3.20;99.90
31799;DHT22;18374;51.136;3.502;2023-01-31T02:04:12;3.20;99.90
31799;DHT22;18374;51.136;3.502;2023-01-31T02:06:43;3.20;99.90
31799;DHT22;18374;51.136;3.502;2023-01-31T02:09:24;3.30;99.90
31799;DHT22;18374;51.136;3.502;2023-01-31T02:11:57;3.30;99.90
31799;DHT22;18374;51.136;3.502;2023-01-31T02:14:26;3.20;99.90
31799;DHT22;18374;51.136;3.502;2023-01-31T02:16:54;3.20;99.90
31799;DHT22;18374;51.136;3.502;2023-01-31T02:19:34;3.20;99.90
31799;DHT22;18374;51.136;3.502;2023-01-31T02:22:15;3.20;99.90
31799;DHT22;18374;51.136;3.502;2023-01-31T02:31:17;3.10;99.90
31799;DHT22;18374;51.136;3.502;2023-01-31T02:34:03;3.10;99.90
31799;DHT22;18374;51.136;3.502;2023-01-31T02:37:28;3.10;99.90
31799;DHT22;18374;51.136;3.502;2023-01-31T02:42:58;3.10;99.90
31799;DHT22;18374;51.136;3.502;2023-01-31T02:45:49;3.10;99.90
31799;DHT22;18374;51.136;3.502;2023-01-31T02:51:01;3.10;99.90
31799;DHT22;18374;51.136;3.502;2023-01-31T02:53:36;3.10;99.90
31799;DHT22;18374;51.136;3.502;2023-01-31T02:56:20;3.20;99.90
31799;DHT22;18374;51.136;3.502;2023-01-31T02:59:18;3.20;99.90
31799;DHT22;18374;51.136;3.502;2023-01-31T03:01:57;3.20;99.90
31799;DHT22;18374;51.136;3.502;2023-01-31T03:04:31;3.20;99.90
31799;DHT22;18374;51.136;3.502;2023-01-31T03:07:11;3.30;99.90
31799;DHT22;18374;51.136;3.502;2023-01-31T03:19:27;3.20;99.90
31799;DHT22;18374;51.136;3.502;2023-01-31T03:22:07;3.20;99.90
31799;DHT22;18374;51.136;3.502;2023-01-31T03:24:51;3.20;99.90
31799;DHT22;18374;51.136;3.502;2023-01-31T03:27:19;3.20;99.90
31799;DHT22;18374;51.136;3.502;2023-01-31T03:29:58;3.20;99.90
31799;DHT22;18374;51.136;3.502;2023-01-31T03:32:41;3.20;99.90
31799;DHT22;18374;51.136;3.502;2023-01-31T03:35:12;3.30;99.90
31799;DHT22;18374;51.136;3.502;2023-01-31T03:37:47;3.30;99.90
31799;DHT22;18374;51.136;3.502;2023-01-31T03:40:29;3.30;99.90
31799;DHT22;18374;51.136;3.502;2023-01-31T03:46:14;3.20;99.90
31799;DHT22;18374;51.136;3.502;2023-01-31T03:48:51;3.10;99.90
31799;DHT22;18374;51.136;3.502;2023-01-31T03:51:26;3.10;99.90
31799;DHT22;18374;51.136;3.502;2023-01-31T03:54:00;3.10;99.90
31799;DHT22;18374;51.136;3.502;2023-01-31T03:56:47;3.10;99.90
31799;DHT22;18374;51.136;3.502;2023-01-31T03:59:25;3.10;99.90
31799;DHT22;18374;51.136;3.502;2023-01-31T04:01:56;3.10;99.90
31799;DHT22;18374;51.136;3.502;2023-01-31T04:04:38;3.10;99.90
31799;DHT22;18374;51.136;3.502;2023-01-31T04:07:08;3.00;99.90
31799;DHT22;18374;51.136;3.502;2023-01-31T04:09:38;3.00;99.90
31799;DHT22;18374;51.136;3.502;2023-01-31T04:12:06;3.00;99.90
31799;DHT22;18374;51.136;3.502;2023-01-31T04:14:33;3.00;99.90
31799;DHT22;18374;51.136;3.502;2023-01-31T04:17:01;3.00;99.90
31799;DHT22;18374;51.136;3.502;2023-01-31T04:19:29;3.10;99.90
31799;DHT22;18374;51.136;3.502;2023-01-31T04:21:57;3.00;99.90
31799;DHT22;18374;51.136;3.502;2023-01-31T04:24:24;3.10;99.90
31799;DHT22;18374;51.136;3.502;2023-01-31T04:26:52;3.10;99.90
31799;DHT22;18374;51.136;3.502;2023-01-31T04:29:20;3.10;99.90
31799;DHT22;18374;51.136;3.502;2023-01-31T04:31:47;3.10;99.90
31799;DHT22;18374;51.136;3.502;2023-01-31T04:34:15;3.10;99.90
31799;DHT22;18374;51.136;3.502;2023-01-31T04:36:43;3.10;99.90
31799;DHT22;18374;51.136;3.502;2023-01-31T04:39:11;3.00;99.90
31799;DHT22;18374;51.136;3.502;2023-01-31T04:41:40;3.00;99.90
31799;DHT22;18374;51.136;3.502;2023-01-31T04:44:07;3.00;99.90
31799;DHT22;18374;51.136;3.502;2023-01-31T04:46:35;3.00;99.90
31799;DHT22;18374;51.136;3.502;2023-01-31T04:49:03;3.00;99.90
31799;DHT22;18374;51.136;3.502;2023-01-31T04:51:31;3.00;99.90
31799;DHT22;18374;51.136;3.502;2023-01-31T04:53:59;3.00;99.90
31799;DHT22;18374;51.136;3.502;2023-01-31T04:56:27;3.00;99.90
31799;DHT22;18374;51.136;3.502;2023-01-31T04:58:54;3.10;99.90
31799;DHT22;18374;51.136;3.502;2023-01-31T05:01:23;3.10;99.90
31799;DHT22;18374;51.136;3.502;2023-01-31T05:03:51;3.10;99.90
31799;DHT22;18374;51.136;3.502;2023-01-31T05:06:19;3.10;99.90
31799;DHT22;18374;51.136;3.502;2023-01-31T05:08:48;3.20;99.90
31799;DHT22;18374;51.136;3.502;2023-01-31T05:11:16;3.30;99.90
31799;DHT22;18374;51.136;3.502;2023-01-31T05:13:43;3.30;99.90
31799;DHT22;18374;51.136;3.502;2023-01-31T05:16:11;3.30;99.90
31799;DHT22;18374;51.136;3.502;2023-01-31T05:18:39;3.40;99.90
31799;DHT22;18374;51.136;3.502;2023-01-31T05:21:07;3.40;99.90
31799;DHT22;18374;51.136;3.502;2023-01-31T05:23:35;3.50;99.90
31799;DHT22;18374;51.136;3.502;2023-01-31T05:26:03;3.50;99.90
31799;DHT22;18374;51.136;3.502;2023-01-31T05:28:31;3.50;99.90
31799;DHT22;18374;51.136;3.502;2023-01-31T05:31:05;3.50;99.90
31799;DHT22;18374;51.136;3.502;2023-01-31T05:33:34;3.60;99.90
31799;DHT22;18374;51.136;3.502;2023-01-31T05:36:03;3.60;99.90
31799;DHT22;18374;51.136;3.502;2023-01-31T05:38:31;3.60;99.90
31799;DHT22;18374;51.136;3.502;2023-01-31T05:40:59;3.60;99.90
31799;DHT22;18374;51.136;3.502;2023-01-31T05:43:26;3.70;99.90
31799;DHT22;18374;51.136;3.502;2023-01-31T05:45:54;3.70;99.90
31799;DHT22;18374;51.136;3.502;2023-01-31T05:48:22;3.70;99.90
31799;DHT22;18374;51.136;3.502;2023-01-31T05:50:50;3.70;99.90
31799;DHT22;18374;51.136;3.502;2023-01-31T05:53:18;3.80;99.90
31799;DHT22;18374;51.136;3.502;2023-01-31T05:55:46;3.80;99.90
31799;DHT22;18374;51.136;3.502;2023-01-31T05:58:16;3.90;99.90
31799;DHT22;18374;51.136;3.502;2023-01-31T06:00:43;3.90;99.90
31799;DHT22;18374;51.136;3.502;2023-01-31T06:03:12;3.90;99.90
31799;DHT22;18374;51.136;3.502;2023-01-31T06:05:40;3.90;99.90
31799;DHT22;18374;51.136;3.502;2023-01-31T06:08:07;3.90;99.90
31799;DHT22;18374;51.136;3.502;2023-01-31T06:10:36;4.00;99.90
31799;DHT22;18374;51.136;3.502;2023-01-31T06:13:04;4.00;99.90
31799;DHT22;18374;51.136;3.502;2023-01-31T06:15:33;4.00;99.90
31799;DHT22;18374;51.136;3.502;2023-01-31T06:18:02;4.10;99.90
31799;DHT22;18374;51.136;3.502;2023-01-31T06:20:30;4.10;99.90
31799;DHT22;18374;51.136;3.502;2023-01-31T06:22:58;4.10;99.90
31799;DHT22;18374;51.136;3.502;2023-01-31T06:25:27;4.20;99.90
31799;DHT22;18374;51.136;3.502;2023-01-31T06:27:55;4.20;99.90
31799;DHT22;18374;51.136;3.502;2023-01-31T06:30:23;4.20;99.90
31799;DHT22;18374;51.136;3.502;2023-01-31T06:32:51;4.30;99.90
31799;DHT22;18374;51.136;3.502;2023-01-31T06:35:19;4.30;99.90
31799;DHT22;18374;51.136;3.502;2023-01-31T06:37:47;4.30;99.90
31799;DHT22;18374;51.136;3.502;2023-01-31T06:40:15;4.30;99.90
31799;DHT22;18374;51.136;3.502;2023-01-31T06:42:43;4.20;99.90
31799;DHT22;18374;51.136;3.502;2023-01-31T06:45:10;4.30;99.90
31799;DHT22;18374;51.136;3.502;2023-01-31T06:47:38;4.30;99.90
31799;DHT22;18374;51.136;3.502;2023-01-31T06:50:06;4.30;99.90
31799;DHT22;18374;51.136;3.502;2023-01-31T06:52:34;4.30;99.90
31799;DHT22;18374;51.136;3.502;2023-01-31T06:55:02;4.30;99.90
31799;DHT22;18374;51.136;3.502;2023-01-31T06:57:30;4.30;99.90
31799;DHT22;18374;51.136;3.502;2023-01-31T06:59:58;4.30;99.90
31799;DHT22;18374;51.136;3.502;2023-01-31T07:02:25;4.30;99.90
31799;DHT22;18374;51.136;3.502;2023-01-31T07:04:53;4.30;99.90
31799;DHT22;18374;51.136;3.502;2023-01-31T07:07:21;4.30;99.90
31799;DHT22;18374;51.136;3.502;2023-01-31T07:09:49;4.40;99.90
31799;DHT22;18374;51.136;3.502;2023-01-31T07:12:17;4.40;99.90
31799;DHT22;18374;51.136;3.502;2023-01-31T07:14:44;4.40;99.90
31799;DHT22;18374;51.136;3.502;2023-01-31T07:17:12;4.40;99.90
31799;DHT22;18374;51.136;3.502;2023-01-31T07:19:40;4.40;99.90
31799;DHT22;18374;51.136;3.502;2023-01-31T07:22:08;4.40;99.90
31799;DHT22;18374;51.136;3.502;2023-01-31T07:24:35;4.40;99.90
31799;DHT22;18374;51.136;3.502;2023-01-31T07:27:03;4.40;99.90
31799;DHT22;18374;51.136;3.502;2023-01-31T07:29:31;4.40;99.90
31799;DHT22;18374;51.136;3.502;2023-01-31T07:31:59;4.40;99.90
31799;DHT22;18374;51.136;3.502;2023-01-31T07:34:27;4.40;99.90
31799;DHT22;18374;51.136;3.502;2023-01-31T07:36:56;4.40;99.90
31799;DHT22;18374;51.136;3.502;2023-01-31T07:39:25;4.40;99.90
31799;DHT22;18374;51.136;3.502;2023-01-31T07:41:53;4.40;99.90
31799;DHT22;18374;51.136;3.502;2023-01-31T07:44:23;4.40;99.90
31799;DHT22;18374;51.136;3.502;2023-01-31T07:46:51;4.50;99.90
31799;DHT22;18374;51.136;3.502;2023-01-31T07:49:21;4.60;99.90
31799;DHT22;18374;51.136;3.502;2023-01-31T07:51:49;4.60;99.90
31799;DHT22;18374;51.136;3.502;2023-01-31T07:54:17;4.70;99.90
31799;DHT22;18374;51.136;3.502;2023-01-31T07:56:44;4.70;99.90
31799;DHT22;18374;51.136;3.502;2023-01-31T07:59:13;4.80;99.90
31799;DHT22;18374;51.136;3.502;2023-01-31T08:01:41;4.80;99.90
31799;DHT22;18374;51.136;3.502;2023-01-31T08:04:27;4.90;99.90
31799;DHT22;18374;51.136;3.502;2023-01-31T08:06:55;4.90;99.90
31799;DHT22;18374;51.136;3.502;2023-01-31T08:09:26;5.00;99.90
31799;DHT22;18374;51.136;3.502;2023-01-31T08:11:53;5.00;99.90
31799;DHT22;18374;51.136;3.502;2023-01-31T08:14:21;5.00;99.90
31799;DHT22;18374;51.136;3.502;2023-01-31T08:16:54;5.00;99.90
31799;DHT22;18374;51.136;3.502;2023-01-31T08:19:22;5.00;99.90
31799;DHT22;18374;51.136;3.502;2023-01-31T08:21:50;5.10;99.90
31799;DHT22;18374;51.136;3.502;2023-01-31T08:24:18;5.10;99.90
31799;DHT22;18374;51.136;3.502;2023-01-31T08:26:46;5.10;99.90
31799;DHT22;18374;51.136;3.502;2023-01-31T08:29:14;5.10;99.90
31799;DHT22;18374;51.136;3.502;2023-01-31T08:31:41;5.10;99.90
31799;DHT22;18374;51.136;3.502;2023-01-31T08:34:10;5.10;99.90
31799;DHT22;18374;51.136;3.502;2023-01-31T08:36:38;5.10;99.90
31799;DHT22;18374;51.136;3.502;2023-01-31T08:39:06;5.10;99.90
31799;DHT22;18374;51.136;3.502;2023-01-31T08:41:35;5.10;99.90
31799;DHT22;18374;51.136;3.502;2023-01-31T08:44:04;5.10;99.90
31799;DHT22;18374;51.136;3.502;2023-01-31T08:46:34;5.20;99.90
31799;DHT22;18374;51.136;3.502;2023-01-31T08:49:04;5.10;99.90
31799;DHT22;18374;51.136;3.502;2023-01-31T08:51:33;5.20;99.90
31799;DHT22;18374;51.136;3.502;2023-01-31T08:54:01;5.10;99.90
31799;DHT22;18374;51.136;3.502;2023-01-31T08:56:29;5.20;99.90
31799;DHT22;18374;51.136;3.502;2023-01-31T08:58:56;5.20;99.90
31799;DHT22;18374;51.136;3.502;2023-01-31T09:01:24;5.20;99.90
31799;DHT22;18374;51.136;3.502;2023-01-31T09:03:52;5.20;99.90
31799;DHT22;18374;51.136;3.502;2023-01-31T09:06:25;5.20;99.90
31799;DHT22;18374;51.136;3.502;2023-01-31T09:08:57;5.30;99.90
31799;DHT22;18374;51.136;3.502;2023-01-31T09:11:29;5.30;99.90
31799;DHT22;18374;51.136;3.502;2023-01-31T09:13:57;5.30;99.90
31799;DHT22;18374;51.136;3.502;2023-01-31T09:16:25;5.40;99.90
31799;DHT22;18374;51.136;3.502;2023-01-31T09:18:54;5.40;99.90
31799;DHT22;18374;51.136;3.502;2023-01-31T09:21:23;5.40;99.90
31799;DHT22;18374;51.136;3.502;2023-01-31T09:23:57;5.40;99.90
31799;DHT22;18374;51.136;3.502;2023-01-31T09:26:29;5.40;99.90
31799;DHT22;18374;51.136;3.502;2023-01-31T09:28:57;5.40;99.90
31799;DHT22;18374;51.136;3.502;2023-01-31T09:31:27;5.50;99.90
31799;DHT22;18374;51.136;3.502;2023-01-31T09:33:56;5.50;99.90
31799;DHT22;18374;51.136;3.502;2023-01-31T09:36:24;5.50;99.90
31799;DHT22;18374;51.136;3.502;2023-01-31T09:38:53;5.50;99.90
31799;DHT22;18374;51.136;3.502;2023-01-31T09:41:43;5.50;99.90
31799;DHT22;18374;51.136;3.502;2023-01-31T09:44:38;5.60;99.90
31799;DHT22;18374;51.136;3.502;2023-01-31T09:50:20;5.70;99.90
31799;DHT22;18374;51.136;3.502;2023-01-31T09:52:59;5.80;99.90
31799;DHT22;18374;51.136;3.502;2023-01-31T09:55:44;5.90;99.90
31799;DHT22;18374;51.136;3.502;2023-01-31T09:58:43;5.90;99.90
31799;DHT22;18374;51.136;3.502;2023-01-31T10:09:45;6.10;99.90
31799;DHT22;18374;51.136;3.502;2023-01-31T10:12:33;6.20;99.90
31799;DHT22;18374;51.136;3.502;2023-01-31T10:17:53;6.60;99.90
31799;DHT22;18374;51.136;3.502;2023-01-31T10:23:59;6.90;99.90
31799;DHT22;18374;51.136;3.502;2023-01-31T10:26:33;7.10;99.90
31799;DHT22;18374;51.136;3.502;2023-01-31T10:29:30;7.20;99.90
31799;DHT22;18374;51.136;3.502;2023-01-31T10:32:34;7.40;99.90
31799;DHT22;18374;51.136;3.502;2023-01-31T10:35:06;7.60;99.90
31799;DHT22;18374;51.136;3.502;2023-01-31T10:37:58;7.60;99.90
31799;DHT22;18374;51.136;3.502;2023-01-31T10:40:51;7.70;99.90
31799;DHT22;18374;51.136;3.502;2023-01-31T10:43:21;7.80;99.90
31799;DHT22;18374;51.136;3.502;2023-01-31T10:46:01;7.80;99.90
31799;DHT22;18374;51.136;3.502;2023-01-31T10:48:29;7.80;99.90
31799;DHT22;18374;51.136;3.502;2023-01-31T10:54:18;7.70;99.90
31799;DHT22;18374;51.136;3.502;2023-01-31T10:56:52;7.80;99.90
31799;DHT22;18374;51.136;3.502;2023-01-31T10:59:41;8.00;99.90
31799;DHT22;18374;51.136;3.502;2023-01-31T11:02:23;8.20;99.90
31799;DHT22;18374;51.136;3.502;2023-01-31T11:04:57;8.30;99.90
31799;DHT22;18374;51.136;3.502;2023-01-31T11:07:30;8.40;99.90
31799;DHT22;18374;51.136;3.502;2023-01-31T11:09:58;8.40;99.90
31799;DHT22;18374;51.136;3.502;2023-01-31T11:12:41;8.40;99.90
31799;DHT22;18374;51.136;3.502;2023-01-31T11:15:19;8.40;99.90
31799;DHT22;18374;51.136;3.502;2023-01-31T11:17:50;8.50;99.90
31799;DHT22;18374;51.136;3.502;2023-01-31T11:20:26;8.40;99.90
31799;DHT22;18374;51.136;3.502;2023-01-31T11:22:58;8.40;99.90
31799;DHT22;18374;51.136;3.502;2023-01-31T11:25:30;8.40;99.90
31799;DHT22;18374;51.136;3.502;2023-01-31T11:28:26;8.40;99.90
31799;DHT22;18374;51.136;3.502;2023-01-31T11:31:04;8.40;99.90
31799;DHT22;18374;51.136;3.502;2023-01-31T11:33:59;8.40;99.90
31799;DHT22;18374;51.136;3.502;2023-01-31T11:36:40;8.40;99.90
31799;DHT22;18374;51.136;3.502;2023-01-31T11:41:52;8.40;99.90
31799;DHT22;18374;51.136;3.502;2023-01-31T11:44:24;8.50;99.90
31799;DHT22;18374;51.136;3.502;2023-01-31T11:46:57;8.50;99.90
31799;DHT22;18374;51.136;3.502;2023-01-31T11:49:41;8.40;99.90
31799;DHT22;18374;51.136;3.502;2023-01-31T11:52:15;8.40;99.90
31799;DHT22;18374;51.136;3.502;2023-01-31T11:54:53;8.30;99.90
31799;DHT22;18374;51.136;3.502;2023-01-31T11:57:27;8.30;99.90
31799;DHT22;18374;51.136;3.502;2023-01-31T11:59:59;8.30;99.90
31799;DHT22;18374;51.136;3.502;2023-01-31T12:02:39;8.30;99.90
31799;DHT22;18374;51.136;3.502;2023-01-31T12:05:17;8.30;99.90
31799;DHT22;18374;51.136;3.502;2023-01-31T12:07:50;8.30;99.90
31799;DHT22;18374;51.136;3.502;2023-01-31T12:13:01;8.30;99.90
31799;DHT22;18374;51.136;3.502;2023-01-31T12:16:04;8.30;99.90
31799;DHT22;18374;51.136;3.502;2023-01-31T12:24:56;8.40;99.90
31799;DHT22;18374;51.136;3.502;2023-01-31T12:30:53;8.40;99.90
31799;DHT22;18374;51.136;3.502;2023-01-31T12:33:52;8.40;99.90
31799;DHT22;18374;51.136;3.502;2023-01-31T12:37:24;8.40;99.90
31799;DHT22;18374;51.136;3.502;2023-01-31T12:52:04;8.40;99.90
31799;DHT22;18374;51.136;3.502;2023-01-31T13:01:35;8.50;99.90
31799;DHT22;18374;51.136;3.502;2023-01-31T13:06:32;8.70;99.90
31799;DHT22;18374;51.136;3.502;2023-01-31T13:09:24;8.70;99.90
31799;DHT22;18374;51.136;3.502;2023-01-31T13:12:05;8.80;99.90
31799;DHT22;18374;51.136;3.502;2023-01-31T13:14:39;8.80;99.90
31799;DHT22;18374;51.136;3.502;2023-01-31T13:17:16;8.80;99.90
31799;DHT22;18374;51.136;3.502;2023-01-31T13:19:47;8.90;99.90
31799;DHT22;18374;51.136;3.502;2023-01-31T13:22:27;8.90;99.90
31799;DHT22;18374;51.136;3.502;2023-01-31T13:27:59;9.00;99.90
31799;DHT22;18374;51.136;3.502;2023-01-31T13:33:00;9.00;99.90
31799;DHT22;18374;51.136;3.502;2023-01-31T13:35:43;9.10;99.90
31799;DHT22;18374;51.136;3.502;2023-01-31T13:38:15;9.10;99.90
31799;DHT22;18374;51.136;3.502;2023-01-31T13:40:51;9.20;99.90
31799;DHT22;18374;51.136;3.502;2023-01-31T13:43:21;9.20;99.90
31799;DHT22;18374;51.136;3.502;2023-01-31T13:45:54;9.20;99.90
31799;DHT22;18374;51.136;3.502;2023-01-31T13:48:44;9.30;99.90
31799;DHT22;18374;51.136;3.502;2023-01-31T13:51:23;9.50;99.90
31799;DHT22;18374;51.136;3.502;2023-01-31T13:54:15;9.70;99.90
31799;DHT22;18374;51.136;3.502;2023-01-31T13:56:52;10.00;99.90
31799;DHT22;18374;51.136;3.502;2023-01-31T13:59:24;10.20;99.90
31799;DHT22;18374;51.136;3.502;2023-01-31T14:01:55;10.20;99.90
31799;DHT22;18374;51.136;3.502;2023-01-31T14:04:31;10.30;99.90
31799;DHT22;18374;51.136;3.502;2023-01-31T14:12:34;10.20;99.90
31799;DHT22;18374;51.136;3.502;2023-01-31T14:18:43;10.50;99.90
31799;DHT22;18374;51.136;3.502;2023-01-31T14:24:02;10.50;99.90
31799;DHT22;18374;51.136;3.502;2023-01-31T14:29:23;10.50;99.90
31799;DHT22;18374;51.136;3.502;2023-01-31T14:31:54;10.50;99.90
31799;DHT22;18374;51.136;3.502;2023-01-31T14:34:25;10.50;99.90
31799;DHT22;18374;51.136;3.502;2023-01-31T14:46:07;10.50;99.90
31799;DHT22;18374;51.136;3.502;2023-01-31T14:55:02;10.20;99.90
31799;DHT22;18374;51.136;3.502;2023-01-31T14:57:42;10.10;99.90
31799;DHT22;18374;51.136;3.502;2023-01-31T15:00:18;10.00;99.90
31799;DHT22;18374;51.136;3.502;2023-01-31T15:02:59;10.00;99.90
31799;DHT22;18374;51.136;3.502;2023-01-31T15:18:45;9.70;99.90
31799;DHT22;18374;51.136;3.502;2023-01-31T15:21:32;9.70;99.90
31799;DHT22;18374;51.136;3.502;2023-01-31T15:24:18;9.70;99.90
31799;DHT22;18374;51.136;3.502;2023-01-31T15:27:03;9.60;99.90
31799;DHT22;18374;51.136;3.502;2023-01-31T15:33:06;9.50;99.90
31799;DHT22;18374;51.136;3.502;2023-01-31T15:35:26;9.40;99.90
31799;DHT22;18374;51.136;3.502;2023-01-31T15:41:37;9.20;99.90
31799;DHT22;18374;51.136;3.502;2023-01-31T15:44:15;9.10;99.90
31799;DHT22;18374;51.136;3.502;2023-01-31T15:46:50;9.10;99.90
31799;DHT22;18374;51.136;3.502;2023-01-31T15:49:33;9.10;99.90
31799;DHT22;18374;51.136;3.502;2023-01-31T15:54:35;9.00;99.90
31799;DHT22;18374;51.136;3.502;2023-01-31T15:57:04;9.00;99.90
31799;DHT22;18374;51.136;3.502;2023-01-31T15:59:37;9.00;99.90
31799;DHT22;18374;51.136;3.502;2023-01-31T16:02:11;9.00;99.90
31799;DHT22;18374;51.136;3.502;2023-01-31T16:04:46;9.00;99.90
31799;DHT22;18374;51.136;3.502;2023-01-31T16:07:18;9.00;99.90
31799;DHT22;18374;51.136;3.502;2023-01-31T16:09:47;9.00;99.90
31799;DHT22;18374;51.136;3.502;2023-01-31T16:12:16;9.00;99.90
31799;DHT22;18374;51.136;3.502;2023-01-31T16:14:47;9.00;99.90
31799;DHT22;18374;51.136;3.502;2023-01-31T16:17:15;8.90;99.90
31799;DHT22;18374;51.136;3.502;2023-01-31T16:19:48;8.90;99.90
31799;DHT22;18374;51.136;3.502;2023-01-31T16:22:34;8.90;99.90
31799;DHT22;18374;51.136;3.502;2023-01-31T16:25:03;8.90;99.90
31799;DHT22;18374;51.136;3.502;2023-01-31T16:27:37;8.90;99.90
31799;DHT22;18374;51.136;3.502;2023-01-31T16:30:14;8.90;99.90
31799;DHT22;18374;51.136;3.502;2023-01-31T16:32:43;8.90;99.90
31799;DHT22;18374;51.136;3.502;2023-01-31T16:35:23;8.90;99.90
31799;DHT22;18374;51.136;3.502;2023-01-31T16:38:04;8.80;99.90
31799;DHT22;18374;51.136;3.502;2023-01-31T16:40:47;8.90;99.90
31799;DHT22;18374;51.136;3.502;2023-01-31T16:43:25;8.90;99.90
31799;DHT22;18374;51.136;3.502;2023-01-31T16:46:05;8.90;99.90
31799;DHT22;18374;51.136;3.502;2023-01-31T16:48:39;8.90;99.90
31799;DHT22;18374;51.136;3.502;2023-01-31T16:51:38;8.90;99.90
31799;DHT22;18374;51.136;3.502;2023-01-31T16:54:22;8.90;99.90
31799;DHT22;18374;51.136;3.502;2023-01-31T16:59:44;8.90;99.90
31799;DHT22;18374;51.136;3.502;2023-01-31T17:02:23;8.90;99.90
31799;DHT22;18374;51.136;3.502;2023-01-31T17:05:07;8.90;99.90
31799;DHT22;18374;51.136;3.502;2023-01-31T17:07:51;8.90;99.90
31799;DHT22;18374;51.136;3.502;2023-01-31T17:10:29;8.90;99.90
31799;DHT22;18374;51.136;3.502;2023-01-31T17:15:55;8.90;99.90
31799;DHT22;18374;51.136;3.502;2023-01-31T17:18:23;8.80;99.90
31799;DHT22;18374;51.136;3.502;2023-01-31T17:20:51;8.80;99.90
31799;DHT22;18374;51.136;3.502;2023-01-31T17:23:24;8.80;99.90
31799;DHT22;18374;51.136;3.502;2023-01-31T17:25:55;8.80;99.90
31799;DHT22;18374;51.136;3.502;2023-01-31T17:28:30;8.70;99.90
31799;DHT22;18374;51.136;3.502;2023-01-31T17:30:58;8.70;99.90
31799;DHT22;18374;51.136;3.502;2023-01-31T17:33:26;8.60;99.90
31799;DHT22;18374;51.136;3.502;2023-01-31T17:35:57;8.60;99.90
31799;DHT22;18374;51.136;3.502;2023-01-31T17:38:26;8.60;99.90
31799;DHT22;18374;51.136;3.502;2023-01-31T17:40:54;8.50;99.90
31799;DHT22;18374;51.136;3.502;2023-01-31T17:43:22;8.50;99.90
31799;DHT22;18374;51.136;3.502;2023-01-31T17:45:51;8.50;99.90
31799;DHT22;18374;51.136;3.502;2023-01-31T17:48:19;8.50;99.90
31799;DHT22;18374;51.136;3.502;2023-01-31T17:50:53;8.50;99.90
31799;DHT22;18374;51.136;3.502;2023-01-31T17:53:21;8.50;99.90
31799;DHT22;18374;51.136;3.502;2023-01-31T17:55:49;8.50;99.90
31799;DHT22;18374;51.136;3.502;2023-01-31T17:58:16;8.40;99.90
31799;DHT22;18374;51.136;3.502;2023-01-31T18:00:44;8.40;99.90
31799;DHT22;18374;51.136;3.502;2023-01-31T18:03:17;8.30;99.90
31799;DHT22;18374;51.136;3.502;2023-01-31T18:05:47;8.20;99.90
31799;DHT22;18374;51.136;3.502;2023-01-31T18:08:15;8.10;99.90
31799;DHT22;18374;51.136;3.502;2023-01-31T18:10:43;8.10;99.90
31799;DHT22;18374;51.136;3.502;2023-01-31T18:13:11;8.10;99.90
31799;DHT22;18374;51.136;3.502;2023-01-31T18:15:39;8.10;99.90
31799;DHT22;18374;51.136;3.502;2023-01-31T18:18:08;8.00;99.90
31799;DHT22;18374;51.136;3.502;2023-01-31T18:20:37;7.90;99.90
31799;DHT22;18374;51.136;3.502;2023-01-31T18:23:05;7.90;99.90
31799;DHT22;18374;51.136;3.502;2023-01-31T18:25:33;7.80;99.90
31799;DHT22;18374;51.136;3.502;2023-01-31T18:28:01;7.80;99.90
31799;DHT22;18374;51.136;3.502;2023-01-31T18:30:28;7.80;99.90
31799;DHT22;18374;51.136;3.502;2023-01-31T18:32:57;7.80;99.90
31799;DHT22;18374;51.136;3.502;2023-01-31T18:35:24;7.70;99.90
31799;DHT22;18374;51.136;3.502;2023-01-31T18:37:52;7.60;99.90
31799;DHT22;18374;51.136;3.502;2023-01-31T18:40:21;7.60;99.90
31799;DHT22;18374;51.136;3.502;2023-01-31T18:42:49;7.60;99.90
31799;DHT22;18374;51.136;3.502;2023-01-31T18:45:17;7.50;99.90
31799;DHT22;18374;51.136;3.502;2023-01-31T18:47:44;7.40;99.90
31799;DHT22;18374;51.136;3.502;2023-01-31T18:50:12;7.30;99.90
31799;DHT22;18374;51.136;3.502;2023-01-31T18:52:40;7.20;99.90